createdAt,value
2018-11-27T00:00:51.752Z,77.52
2018-11-27T00:01:58.954Z,77.54
2018-11-27T00:03:05.428Z,77.54
2018-11-27T00:04:12.320Z,77.54
2018-11-27T00:05:19.150Z,77.56
2018-11-27T00:06:25.954Z,77.53
2018-11-27T00:07:32.779Z,77.56
2018-11-27T00:08:39.721Z,77.56
2018-11-27T00:09:46.543Z,77.56
2018-11-27T00:10:53.355Z,77.59
2018-11-27T00:12:00.189Z,77.58
2018-11-27T00:13:06.972Z,77.56
2018-11-27T00:14:13.777Z,77.56
2018-11-27T00:15:20.600Z,77.55
2018-11-27T00:16:27.383Z,77.52
2018-11-27T00:17:34.208Z,77.54
2018-11-27T00:18:41.108Z,77.51
2018-11-27T00:19:48.018Z,77.51
2018-11-27T00:20:54.923Z,77.52
2018-11-27T00:22:01.752Z,77.51
2018-11-27T00:23:08.802Z,77.52
2018-11-27T00:24:15.800Z,77.53
2018-11-27T00:25:22.669Z,77.55
2018-11-27T00:26:29.600Z,77.55
2018-11-27T00:27:36.424Z,77.54
2018-11-27T00:28:43.385Z,77.53
2018-11-27T00:29:50.665Z,77.60
2018-11-27T00:30:57.301Z,77.65
2018-11-27T00:32:04.115Z,77.68
2018-11-27T00:33:10.961Z,77.71
2018-11-27T00:34:17.800Z,77.73
2018-11-27T00:35:24.592Z,77.74
2018-11-27T00:36:31.389Z,77.76
2018-11-27T00:37:38.261Z,77.77
2018-11-27T00:38:45.161Z,77.81
2018-11-27T00:39:51.986Z,77.79
2018-11-27T00:40:58.804Z,77.79
2018-11-27T00:42:05.616Z,77.76
2018-11-27T00:43:12.436Z,77.75
2018-11-27T00:44:19.313Z,77.75
2018-11-27T00:45:26.164Z,77.73
2018-11-27T00:46:33.065Z,77.71
2018-11-27T00:47:39.891Z,77.75
2018-11-27T00:48:46.918Z,77.72
2018-11-27T00:49:53.748Z,77.74
2018-11-27T00:51:00.603Z,77.76
2018-11-27T00:52:07.413Z,77.76
2018-11-27T00:53:14.241Z,77.78
2018-11-27T00:54:21.066Z,77.79
2018-11-27T00:55:27.872Z,77.80
2018-11-27T00:56:34.777Z,77.81
2018-11-27T00:57:41.605Z,77.80
2018-11-27T00:58:48.733Z,77.81
2018-11-27T00:59:55.553Z,77.80
2018-11-27T01:01:02.395Z,77.82
2018-11-27T01:02:09.236Z,77.82
2018-11-27T01:03:16.175Z,77.79
2018-11-27T01:04:23.013Z,77.82
2018-11-27T01:05:29.944Z,77.85
2018-11-27T01:06:36.782Z,77.82
2018-11-27T01:07:43.586Z,77.85
2018-11-27T01:08:50.539Z,77.83
2018-11-27T01:09:57.501Z,77.84
2018-11-27T01:11:04.325Z,77.83
2018-11-27T01:12:11.300Z,77.84
2018-11-27T01:13:18.097Z,77.85
2018-11-27T01:14:25.068Z,77.88
2018-11-27T01:15:31.952Z,77.88
2018-11-27T01:16:38.858Z,77.88
2018-11-27T01:17:45.662Z,77.89
2018-11-27T01:18:52.770Z,77.89
2018-11-27T01:19:59.604Z,77.89
2018-11-27T01:21:06.473Z,77.91
2018-11-27T01:22:13.298Z,77.96
2018-11-27T01:23:20.185Z,77.92
2018-11-27T01:24:27.008Z,77.95
2018-11-27T01:25:33.834Z,77.97
2018-11-27T01:26:40.633Z,77.99
2018-11-27T01:27:47.529Z,77.99
2018-11-27T01:28:54.412Z,78.03
2018-11-27T01:30:01.226Z,78.05
2018-11-27T01:31:08.213Z,78.04
2018-11-27T01:32:15.052Z,78.06
2018-11-27T01:33:21.960Z,78.03
2018-11-27T01:34:28.787Z,78.04
2018-11-27T01:35:35.621Z,78.06
2018-11-27T01:36:42.413Z,78.04
2018-11-27T01:37:49.202Z,78.07
2018-11-27T01:38:56.052Z,78.06
2018-11-27T01:40:02.865Z,78.06
2018-11-27T01:41:09.657Z,78.09
2018-11-27T01:42:16.596Z,78.11
2018-11-27T01:43:23.412Z,78.11
2018-11-27T01:44:30.223Z,78.12
2018-11-27T01:45:37.009Z,78.14
2018-11-27T01:46:43.847Z,78.12
2018-11-27T01:47:50.632Z,78.10
2018-11-27T01:48:57.461Z,78.13
2018-11-27T01:50:04.273Z,78.17
2018-11-27T01:51:11.212Z,78.17
2018-11-27T01:52:18.029Z,78.17
2018-11-27T01:53:24.837Z,78.19
2018-11-27T01:54:31.637Z,78.24
2018-11-27T01:55:38.424Z,78.25
2018-11-27T01:56:45.294Z,78.28
2018-11-27T01:57:52.088Z,78.31
2018-11-27T01:58:58.905Z,78.33
2018-11-27T02:00:05.816Z,78.33
2018-11-27T02:01:12.741Z,78.33
2018-11-27T02:02:19.609Z,78.32
2018-11-27T02:03:26.412Z,78.33
2018-11-27T02:04:33.258Z,78.33
2018-11-27T02:05:40.051Z,78.32
2018-11-27T02:06:46.889Z,78.35
2018-11-27T02:07:53.685Z,78.36
2018-11-27T02:09:00.616Z,78.36
2018-11-27T02:10:07.744Z,78.34
2018-11-27T02:11:14.596Z,78.37
2018-11-27T02:12:21.408Z,78.35
2018-11-27T02:13:28.225Z,78.35
2018-11-27T02:14:35.044Z,78.37
2018-11-27T02:15:41.861Z,78.40
2018-11-27T02:16:48.740Z,78.41
2018-11-27T02:17:55.614Z,78.44
2018-11-27T02:19:02.469Z,78.45
2018-11-27T02:20:09.406Z,78.45
2018-11-27T02:21:16.568Z,78.42
2018-11-27T02:22:23.425Z,78.42
2018-11-27T02:23:30.384Z,78.45
2018-11-27T02:24:37.169Z,78.46
2018-11-27T02:25:44.084Z,78.48
2018-11-27T02:26:50.951Z,78.52
2018-11-27T02:27:57.865Z,78.54
2018-11-27T02:29:04.712Z,78.57
2018-11-27T02:30:11.658Z,78.60
2018-11-27T02:31:18.438Z,78.62
2018-11-27T02:32:25.285Z,78.65
2018-11-27T02:33:32.109Z,78.65
2018-11-27T02:34:38.971Z,78.67
2018-11-27T02:35:45.830Z,78.66
2018-11-27T02:36:52.665Z,78.68
2018-11-27T02:37:59.604Z,78.64
2018-11-27T02:39:06.462Z,78.61
2018-11-27T02:40:13.392Z,78.61
2018-11-27T02:41:20.167Z,78.63
2018-11-27T02:42:26.971Z,78.65
2018-11-27T02:43:33.846Z,78.65
2018-11-27T02:44:40.667Z,78.66
2018-11-27T02:45:47.598Z,78.66
2018-11-27T02:46:54.449Z,78.68
2018-11-27T02:48:01.384Z,78.71
2018-11-27T02:49:08.537Z,78.72
2018-11-27T02:50:15.376Z,78.73
2018-11-27T02:51:22.489Z,78.75
2018-11-27T02:52:29.316Z,78.77
2018-11-27T02:53:36.129Z,78.79
2018-11-27T02:54:42.944Z,78.82
2018-11-27T02:55:49.781Z,78.85
2018-11-27T02:56:56.661Z,78.85
2018-11-27T02:58:03.503Z,78.88
2018-11-27T02:59:10.421Z,78.94
2018-11-27T03:00:17.296Z,78.94
2018-11-27T03:01:24.327Z,78.99
2018-11-27T03:02:31.278Z,78.99
2018-11-27T03:03:38.145Z,78.99
2018-11-27T03:04:45.062Z,79.01
2018-11-27T03:05:51.981Z,79.01
2018-11-27T03:06:58.865Z,79.03
2018-11-27T03:08:05.714Z,79.07
2018-11-27T03:09:12.632Z,79.00
2018-11-27T03:10:19.467Z,78.98
2018-11-27T03:11:26.312Z,79.03
2018-11-27T03:12:33.128Z,79.07
2018-11-27T03:13:39.958Z,79.09
2018-11-27T03:14:46.870Z,79.15
2018-11-27T03:15:53.700Z,79.15
2018-11-27T03:17:00.547Z,79.21
2018-11-27T03:18:07.422Z,79.24
2018-11-27T03:19:14.285Z,79.26
2018-11-27T03:20:21.139Z,79.28
2018-11-27T03:21:28.043Z,79.30
2018-11-27T03:22:34.917Z,79.29
2018-11-27T03:23:41.918Z,79.29
2018-11-27T03:24:48.737Z,79.32
2018-11-27T03:25:55.589Z,79.31
2018-11-27T03:27:02.544Z,79.32
2018-11-27T03:28:09.698Z,79.34
2018-11-27T03:29:16.537Z,79.37
2018-11-27T03:30:23.522Z,79.38
2018-11-27T03:31:30.673Z,79.38
2018-11-27T03:32:37.521Z,79.36
2018-11-27T03:33:44.455Z,79.34
2018-11-27T03:34:51.298Z,79.33
2018-11-27T03:35:58.116Z,79.29
2018-11-27T03:37:04.983Z,79.28
2018-11-27T03:38:11.801Z,79.31
2018-11-27T03:39:18.692Z,79.29
2018-11-27T03:40:25.522Z,79.27
2018-11-27T03:41:32.675Z,79.25
2018-11-27T03:42:39.519Z,79.29
2018-11-27T03:43:46.381Z,79.30
2018-11-27T03:44:53.242Z,79.31
2018-11-27T03:46:00.081Z,79.33
2018-11-27T03:47:06.931Z,79.31
2018-11-27T03:48:13.890Z,79.35
2018-11-27T03:49:20.741Z,79.37
2018-11-27T03:50:27.679Z,79.42
2018-11-27T03:51:34.410Z,79.42
2018-11-27T03:52:41.257Z,79.44
2018-11-27T03:53:48.098Z,79.46
2018-11-27T03:54:54.920Z,79.47
2018-11-27T03:56:01.761Z,79.50
2018-11-27T03:57:08.885Z,79.49
2018-11-27T03:58:15.752Z,79.49
2018-11-27T03:59:22.568Z,79.50
2018-11-27T04:00:29.509Z,79.48
2018-11-27T04:01:36.227Z,79.53
2018-11-27T04:02:43.064Z,79.55
2018-11-27T04:03:49.923Z,79.58
2018-11-27T04:04:56.770Z,79.59
2018-11-27T04:06:03.675Z,79.61
2018-11-27T04:07:10.585Z,79.59
2018-11-27T04:08:17.457Z,79.58
2018-11-27T04:09:24.286Z,79.59
2018-11-27T04:10:31.113Z,79.59
2018-11-27T04:11:37.904Z,79.65
2018-11-27T04:12:44.789Z,79.69
2018-11-27T04:13:51.658Z,79.70
2018-11-27T04:14:58.496Z,79.73
2018-11-27T04:16:05.433Z,79.76
2018-11-27T04:17:12.328Z,79.75
2018-11-27T04:18:19.216Z,79.76
2018-11-27T04:19:26.041Z,79.79
2018-11-27T04:20:32.885Z,79.83
2018-11-27T04:21:39.765Z,79.86
2018-11-27T04:22:46.602Z,79.90
2018-11-27T04:23:53.439Z,79.92
2018-11-27T04:25:00.413Z,79.94
2018-11-27T04:26:07.445Z,79.96
2018-11-27T04:27:14.379Z,79.99
2018-11-27T04:28:21.217Z,80.01
2018-11-27T04:29:28.218Z,80.03
2018-11-27T04:30:35.270Z,80.04
2018-11-27T04:31:42.451Z,80.08
2018-11-27T04:32:49.192Z,80.09
2018-11-27T04:33:56.029Z,80.11
2018-11-27T04:35:02.858Z,80.14
2018-11-27T04:36:09.973Z,80.13
2018-11-27T04:37:16.885Z,80.12
2018-11-27T04:38:23.759Z,80.17
2018-11-27T04:39:30.608Z,80.19
2018-11-27T04:40:37.544Z,80.21
2018-11-27T04:41:44.417Z,80.23
2018-11-27T04:42:51.212Z,80.21
2018-11-27T04:43:57.989Z,80.18
2018-11-27T04:45:04.836Z,80.17
2018-11-27T04:46:11.786Z,80.16
2018-11-27T04:47:18.966Z,80.19
2018-11-27T04:48:25.778Z,80.18
2018-11-27T04:49:32.699Z,80.16
2018-11-27T04:50:39.486Z,80.18
2018-11-27T04:51:46.234Z,80.19
2018-11-27T04:52:53.066Z,80.19
2018-11-27T04:53:59.876Z,80.20
2018-11-27T04:55:06.644Z,80.21
2018-11-27T04:56:13.637Z,80.16
2018-11-27T04:57:20.420Z,80.16
2018-11-27T04:58:27.249Z,80.14
2018-11-27T04:59:34.009Z,80.12
2018-11-27T05:00:40.793Z,80.12
2018-11-27T05:01:47.651Z,80.10
2018-11-27T05:02:54.480Z,80.12
2018-11-27T05:04:01.273Z,80.12
2018-11-27T05:05:08.070Z,80.14
2018-11-27T05:06:14.928Z,80.15
2018-11-27T05:07:21.854Z,80.13
2018-11-27T05:08:28.657Z,80.15
2018-11-27T05:09:35.412Z,80.12
2018-11-27T05:10:42.245Z,80.12
2018-11-27T05:11:49.019Z,80.11
2018-11-27T05:12:56.489Z,80.11
2018-11-27T05:14:02.797Z,80.11
2018-11-27T05:15:09.645Z,80.11
2018-11-27T05:16:16.417Z,80.09
2018-11-27T05:17:23.193Z,80.08
2018-11-27T05:18:30.005Z,80.05
2018-11-27T05:19:36.829Z,80.05
2018-11-27T05:20:43.572Z,80.06
2018-11-27T05:21:50.407Z,80.06
2018-11-27T05:22:57.256Z,80.09
2018-11-27T05:24:04.016Z,80.08
2018-11-27T05:25:10.805Z,80.06
2018-11-27T05:26:17.552Z,80.03
2018-11-27T05:27:24.336Z,80.03
2018-11-27T05:28:31.124Z,80.00
2018-11-27T05:29:37.893Z,80.01
2018-11-27T05:30:44.742Z,79.99
2018-11-27T05:31:51.553Z,79.97
2018-11-27T05:32:58.323Z,79.92
2018-11-27T05:34:05.140Z,79.94
2018-11-27T05:35:11.924Z,79.95
2018-11-27T05:36:18.920Z,79.93
2018-11-27T05:37:25.716Z,79.93
2018-11-27T05:38:32.521Z,79.91
2018-11-27T05:39:39.344Z,79.89
2018-11-27T05:40:46.140Z,79.85
2018-11-27T05:41:53.141Z,79.79
2018-11-27T05:42:59.969Z,79.79
2018-11-27T05:44:06.784Z,79.74
2018-11-27T05:45:13.682Z,79.75
2018-11-27T05:46:20.576Z,79.72
2018-11-27T05:47:27.399Z,79.74
2018-11-27T05:48:34.193Z,79.69
2018-11-27T05:49:41.098Z,79.67
2018-11-27T05:50:47.867Z,79.64
2018-11-27T05:51:54.632Z,79.64
2018-11-27T05:53:01.407Z,79.63
2018-11-27T05:54:08.229Z,79.62
2018-11-27T05:55:15.014Z,79.63
2018-11-27T05:56:21.748Z,79.59
2018-11-27T05:57:28.581Z,79.58
2018-11-27T05:58:35.351Z,79.57
2018-11-27T05:59:42.127Z,79.54
2018-11-27T06:00:48.980Z,79.50
2018-11-27T06:01:55.772Z,79.50
2018-11-27T06:03:02.582Z,79.49
2018-11-27T06:04:09.381Z,79.48
2018-11-27T06:05:16.174Z,79.49
2018-11-27T06:06:22.889Z,79.50
2018-11-27T06:07:29.648Z,79.53
2018-11-27T06:08:36.436Z,79.49
2018-11-27T06:09:43.212Z,79.49
2018-11-27T06:10:49.980Z,79.48
2018-11-27T06:11:56.984Z,79.47
2018-11-27T06:13:03.782Z,79.46
2018-11-27T06:14:10.589Z,79.44
2018-11-27T06:15:17.361Z,79.42
2018-11-27T06:16:24.106Z,79.40
2018-11-27T06:17:30.949Z,79.38
2018-11-27T06:18:37.733Z,79.36
2018-11-27T06:19:44.537Z,79.34
2018-11-27T06:20:51.336Z,79.35
2018-11-27T06:21:58.076Z,79.35
2018-11-27T06:23:04.888Z,79.33
2018-11-27T06:24:11.742Z,79.31
2018-11-27T06:25:18.509Z,79.32
2018-11-27T06:26:25.491Z,79.31
2018-11-27T06:27:32.257Z,79.32
2018-11-27T06:28:39.021Z,79.32
2018-11-27T06:29:45.900Z,79.33
2018-11-27T06:30:52.652Z,79.32
2018-11-27T06:31:59.425Z,79.32
2018-11-27T06:33:06.269Z,79.29
2018-11-27T06:34:13.049Z,79.28
2018-11-27T06:35:19.831Z,79.27
2018-11-27T06:36:26.724Z,79.25
2018-11-27T06:37:33.500Z,79.24
2018-11-27T06:38:40.300Z,79.26
2018-11-27T06:39:47.081Z,79.28
2018-11-27T06:40:53.860Z,79.25
2018-11-27T06:42:00.626Z,79.23
2018-11-27T06:43:07.503Z,79.24
2018-11-27T06:44:14.653Z,79.25
2018-11-27T06:45:21.461Z,79.25
2018-11-27T06:46:28.349Z,79.31
2018-11-27T06:47:35.124Z,79.31
2018-11-27T06:48:41.913Z,79.28
2018-11-27T06:49:48.748Z,79.26
2018-11-27T06:50:55.495Z,79.26
2018-11-27T06:52:02.708Z,79.23
2018-11-27T06:53:09.171Z,79.24
2018-11-27T06:54:15.921Z,79.23
2018-11-27T06:55:22.708Z,79.24
2018-11-27T06:56:29.525Z,79.26
2018-11-27T06:57:36.278Z,79.25
2018-11-27T06:58:43.085Z,79.26
2018-11-27T06:59:49.900Z,79.22
2018-11-27T07:00:56.657Z,79.23
2018-11-27T07:02:03.449Z,79.20
2018-11-27T07:03:10.405Z,79.23
2018-11-27T07:04:17.124Z,79.19
2018-11-27T07:05:23.922Z,79.18
2018-11-27T07:06:30.768Z,79.16
2018-11-27T07:07:37.556Z,79.12
2018-11-27T07:08:44.721Z,79.11
2018-11-27T07:09:51.562Z,79.10
2018-11-27T07:10:58.352Z,79.08
2018-11-27T07:12:05.117Z,79.10
2018-11-27T07:13:11.937Z,79.10
2018-11-27T07:14:18.705Z,79.13
2018-11-27T07:15:25.465Z,79.12
2018-11-27T07:16:32.217Z,79.12
2018-11-27T07:17:38.976Z,79.11
2018-11-27T07:18:45.743Z,79.12
2018-11-27T07:19:52.509Z,79.10
2018-11-27T07:20:59.240Z,79.10
2018-11-27T07:22:06.025Z,79.08
2018-11-27T07:23:12.824Z,79.09
2018-11-27T07:24:19.579Z,79.08
2018-11-27T07:25:26.417Z,79.08
2018-11-27T07:26:33.540Z,79.07
2018-11-27T07:27:40.305Z,79.10
2018-11-27T07:28:47.444Z,79.10
2018-11-27T07:29:54.221Z,79.09
2018-11-27T07:31:01.082Z,79.13
2018-11-27T07:32:09.563Z,79.13
2018-11-27T07:33:14.951Z,79.13
2018-11-27T07:34:21.714Z,79.12
2018-11-27T07:35:28.565Z,79.16
2018-11-27T07:36:35.329Z,79.16
2018-11-27T07:37:42.070Z,79.17
2018-11-27T07:38:48.957Z,79.17
2018-11-27T07:39:55.751Z,79.18
2018-11-27T07:41:02.509Z,79.22
2018-11-27T07:42:09.507Z,79.27
2018-11-27T07:43:16.347Z,79.27
2018-11-27T07:44:23.132Z,79.29
2018-11-27T07:45:29.884Z,79.29
2018-11-27T07:46:36.648Z,79.29
2018-11-27T07:47:43.460Z,79.27
2018-11-27T07:48:50.316Z,79.28
2018-11-27T07:49:57.096Z,79.30
2018-11-27T07:51:03.863Z,79.30
2018-11-27T07:52:10.627Z,79.31
2018-11-27T07:53:17.420Z,79.32
2018-11-27T07:54:24.252Z,79.33
2018-11-27T07:55:31.013Z,79.33
2018-11-27T07:56:37.788Z,79.33
2018-11-27T07:57:44.632Z,79.35
2018-11-27T07:58:51.525Z,79.38
2018-11-27T07:59:58.347Z,79.38
2018-11-27T08:01:05.129Z,79.40
2018-11-27T08:02:11.912Z,79.42
2018-11-27T08:03:18.944Z,79.38
2018-11-27T08:04:25.795Z,79.39
2018-11-27T08:05:32.877Z,79.37
2018-11-27T08:06:40.055Z,79.42
2018-11-27T08:07:46.806Z,79.45
2018-11-27T08:08:53.936Z,79.46
2018-11-27T08:10:00.759Z,79.49
2018-11-27T08:11:07.592Z,79.53
2018-11-27T08:12:14.353Z,79.56
2018-11-27T08:13:21.125Z,79.61
2018-11-27T08:14:27.944Z,79.63
2018-11-27T08:15:34.726Z,79.66
2018-11-27T08:16:41.496Z,79.67
2018-11-27T08:17:48.284Z,79.67
2018-11-27T08:18:55.095Z,79.67
2018-11-27T08:20:01.892Z,79.66
2018-11-27T08:21:08.872Z,79.69
2018-11-27T08:22:15.636Z,79.69
2018-11-27T08:23:22.441Z,79.71
2018-11-27T08:24:29.247Z,79.72
2018-11-27T08:25:36.053Z,79.73
2018-11-27T08:26:42.858Z,79.75
2018-11-27T08:27:49.652Z,79.73
2018-11-27T08:28:56.497Z,79.69
2018-11-27T08:30:03.396Z,79.71
2018-11-27T08:31:10.526Z,79.73
2018-11-27T08:32:17.308Z,79.74
2018-11-27T08:33:24.098Z,79.73
2018-11-27T08:34:30.909Z,79.73
2018-11-27T08:35:37.688Z,79.69
2018-11-27T08:36:44.488Z,79.72
2018-11-27T08:37:51.324Z,79.72
2018-11-27T08:38:58.325Z,79.73
2018-11-27T08:40:05.136Z,79.74
2018-11-27T08:41:17.056Z,79.77
2018-11-27T08:42:18.902Z,79.78
2018-11-27T08:43:25.755Z,79.81
2018-11-27T08:44:33.212Z,79.81
2018-11-27T08:45:39.528Z,79.85
2018-11-27T08:46:46.372Z,79.83
2018-11-27T08:47:53.831Z,79.83
2018-11-27T08:49:00.160Z,79.84
2018-11-27T08:50:06.992Z,79.87
2018-11-27T08:51:13.800Z,79.87
2018-11-27T08:52:20.713Z,79.87
2018-11-27T08:53:27.492Z,79.88
2018-11-27T08:54:34.332Z,79.91
2018-11-27T08:55:41.125Z,79.90
2018-11-27T08:56:47.943Z,79.89
2018-11-27T08:57:54.748Z,79.95
2018-11-27T08:59:01.695Z,79.96
2018-11-27T09:00:08.821Z,79.95
2018-11-27T09:01:15.861Z,79.96
2018-11-27T09:02:22.673Z,79.97
2018-11-27T09:03:29.471Z,79.96
2018-11-27T09:04:36.390Z,79.96
2018-11-27T09:05:43.185Z,79.92
2018-11-27T09:06:50.207Z,79.94
2018-11-27T09:07:56.672Z,79.94
2018-11-27T09:09:03.603Z,79.94
2018-11-27T09:10:10.696Z,79.95
2018-11-27T09:11:17.735Z,79.96
2018-11-27T09:12:24.620Z,79.94
2018-11-27T09:13:31.456Z,79.91
2018-11-27T09:14:38.228Z,79.86
2018-11-27T09:15:45.105Z,79.85
2018-11-27T09:16:51.977Z,79.86
2018-11-27T09:17:58.772Z,79.86
2018-11-27T09:19:06.001Z,79.86
2018-11-27T09:20:12.343Z,79.87
2018-11-27T09:21:19.133Z,79.91
2018-11-27T09:22:25.909Z,79.93
2018-11-27T09:23:32.745Z,79.91
2018-11-27T09:24:39.499Z,79.94
2018-11-27T09:25:46.299Z,79.93
2018-11-27T09:26:53.135Z,79.93
2018-11-27T09:27:59.891Z,79.94
2018-11-27T09:29:06.654Z,79.93
2018-11-27T09:30:13.417Z,79.91
2018-11-27T09:31:20.304Z,79.92
2018-11-27T09:32:27.097Z,79.96
2018-11-27T09:33:33.936Z,79.97
2018-11-27T09:34:40.721Z,79.99
2018-11-27T09:35:47.524Z,79.97
2018-11-27T09:36:54.369Z,79.96
2018-11-27T09:38:01.207Z,79.92
2018-11-27T09:39:08.312Z,79.92
2018-11-27T09:40:15.356Z,79.90
2018-11-27T09:41:22.189Z,79.90
2018-11-27T09:42:29.031Z,79.85
2018-11-27T09:43:35.884Z,79.84
2018-11-27T09:44:42.776Z,79.82
2018-11-27T09:45:49.584Z,79.81
2018-11-27T09:46:56.405Z,79.81
2018-11-27T09:48:03.197Z,79.82
2018-11-27T09:49:10.089Z,79.81
2018-11-27T09:50:16.934Z,79.82
2018-11-27T09:51:23.849Z,79.78
2018-11-27T09:52:30.705Z,79.77
2018-11-27T09:53:37.560Z,79.75
2018-11-27T09:54:44.466Z,79.73
2018-11-27T09:55:51.325Z,79.75
2018-11-27T09:56:58.354Z,79.76
2018-11-27T09:58:05.187Z,79.81
2018-11-27T09:59:12.035Z,79.77
2018-11-27T10:00:18.882Z,79.80
2018-11-27T10:01:25.840Z,79.81
2018-11-27T10:02:32.660Z,79.83
2018-11-27T10:03:39.565Z,79.89
2018-11-27T10:04:46.362Z,79.90
2018-11-27T10:05:53.140Z,79.87
2018-11-27T10:06:59.990Z,79.83
2018-11-27T10:08:06.847Z,79.77
2018-11-27T10:09:13.749Z,79.75
2018-11-27T10:10:20.561Z,79.73
2018-11-27T10:11:27.669Z,79.74
2018-11-27T10:12:34.487Z,79.78
2018-11-27T10:13:41.460Z,79.79
2018-11-27T10:14:48.262Z,79.80
2018-11-27T10:15:55.086Z,79.82
2018-11-27T10:17:01.933Z,79.81
2018-11-27T10:18:08.872Z,79.84
2018-11-27T10:19:15.747Z,79.83
2018-11-27T10:20:22.592Z,79.86
2018-11-27T10:21:29.723Z,79.83
2018-11-27T10:22:36.562Z,79.81
2018-11-27T10:23:43.490Z,79.79
2018-11-27T10:24:50.323Z,79.78
2018-11-27T10:25:57.260Z,79.75
2018-11-27T10:27:04.236Z,79.74
2018-11-27T10:28:11.058Z,79.78
2018-11-27T10:29:17.881Z,79.79
2018-11-27T10:30:24.788Z,79.82
2018-11-27T10:31:31.694Z,79.86
2018-11-27T10:32:38.570Z,79.85
2018-11-27T10:33:45.403Z,79.83
2018-11-27T10:34:52.190Z,79.83
2018-11-27T10:35:59.002Z,79.85
2018-11-27T10:37:05.825Z,79.83
2018-11-27T10:38:12.608Z,79.89
2018-11-27T10:39:19.402Z,79.89
2018-11-27T10:40:26.212Z,79.91
2018-11-27T10:41:33.116Z,79.90
2018-11-27T10:42:39.952Z,79.89
2018-11-27T10:43:47.678Z,79.92
2018-11-27T10:44:53.525Z,79.84
2018-11-27T10:46:00.312Z,79.81
2018-11-27T10:47:07.155Z,79.77
2018-11-27T10:48:13.988Z,79.75
2018-11-27T10:49:20.784Z,79.77
2018-11-27T10:50:27.676Z,79.78
2018-11-27T10:51:34.456Z,79.81
2018-11-27T10:52:41.242Z,79.77
2018-11-27T10:53:48.272Z,79.78
2018-11-27T10:54:55.047Z,79.74
2018-11-27T10:56:01.860Z,79.75
2018-11-27T10:57:08.691Z,79.71
2018-11-27T10:58:15.573Z,79.68
2018-11-27T10:59:22.371Z,79.69
2018-11-27T11:00:29.161Z,79.71
2018-11-27T11:01:35.945Z,79.73
2018-11-27T11:02:42.920Z,79.78
2018-11-27T11:03:49.765Z,79.88
2018-11-27T11:04:56.525Z,79.88
2018-11-27T11:06:03.413Z,79.86
2018-11-27T11:07:10.239Z,79.82
2018-11-27T11:08:17.056Z,79.79
2018-11-27T11:09:24.053Z,79.80
2018-11-27T11:10:30.898Z,79.77
2018-11-27T11:11:37.680Z,79.77
2018-11-27T11:12:44.458Z,79.70
2018-11-27T11:13:51.512Z,79.66
2018-11-27T11:14:58.382Z,79.68
2018-11-27T11:16:05.164Z,79.68
2018-11-27T11:17:11.953Z,79.63
2018-11-27T11:18:18.784Z,79.57
2018-11-27T11:19:25.585Z,79.59
2018-11-27T11:20:32.393Z,79.55
2018-11-27T11:21:39.168Z,79.50
2018-11-27T11:22:45.972Z,79.46
2018-11-27T11:23:52.779Z,79.44
2018-11-27T11:24:59.548Z,79.41
2018-11-27T11:26:06.392Z,79.43
2018-11-27T11:27:13.248Z,79.40
2018-11-27T11:28:20.071Z,79.43
2018-11-27T11:29:26.752Z,79.44
2018-11-27T11:30:33.616Z,79.47
2018-11-27T11:31:40.480Z,79.44
2018-11-27T11:32:47.260Z,79.42
2018-11-27T11:33:54.125Z,79.39
2018-11-27T11:35:00.922Z,79.39
2018-11-27T11:36:07.951Z,79.39
2018-11-27T11:37:14.762Z,79.38
2018-11-27T11:38:21.552Z,79.34
2018-11-27T11:39:28.372Z,79.31
2018-11-27T11:40:35.276Z,79.27
2018-11-27T11:41:42.064Z,79.24
2018-11-27T11:42:48.841Z,79.22
2018-11-27T11:43:55.848Z,79.22
2018-11-27T11:45:02.635Z,79.23
2018-11-27T11:46:09.475Z,79.21
2018-11-27T11:47:16.255Z,79.20
2018-11-27T11:48:23.028Z,79.17
2018-11-27T11:49:29.908Z,79.15
2018-11-27T11:50:36.659Z,79.11
2018-11-27T11:51:43.456Z,79.09
2018-11-27T11:52:50.314Z,79.07
2018-11-27T11:53:57.028Z,79.05
2018-11-27T11:55:03.819Z,79.02
2018-11-27T11:56:10.694Z,79.02
2018-11-27T11:57:17.466Z,79.01
2018-11-27T11:58:24.249Z,79.01
2018-11-27T11:59:31.113Z,78.99
2018-11-27T12:00:37.913Z,78.98
2018-11-27T12:01:44.984Z,78.99
2018-11-27T12:02:51.784Z,78.99
2018-11-27T12:03:58.624Z,79.00
2018-11-27T12:05:05.461Z,78.99
2018-11-27T12:06:12.499Z,79.00
2018-11-27T12:07:19.306Z,79.00
2018-11-27T12:08:26.182Z,79.04
2018-11-27T12:09:33.029Z,79.05
2018-11-27T12:10:39.972Z,79.10
2018-11-27T12:11:46.892Z,79.11
2018-11-27T12:12:53.729Z,79.10
2018-11-27T12:14:00.584Z,79.09
2018-11-27T12:15:07.584Z,79.11
2018-11-27T12:16:14.427Z,79.13
2018-11-27T12:17:21.247Z,79.12
2018-11-27T12:18:28.016Z,79.15
2018-11-27T12:19:34.839Z,79.15
2018-11-27T12:20:41.628Z,79.14
2018-11-27T12:21:48.410Z,79.14
2018-11-27T12:22:55.261Z,79.09
2018-11-27T12:24:02.060Z,79.07
2018-11-27T12:25:09.024Z,79.07
2018-11-27T12:26:16.146Z,79.06
2018-11-27T12:27:22.952Z,79.06
2018-11-27T12:28:29.764Z,79.08
2018-11-27T12:29:36.576Z,79.08
2018-11-27T12:30:43.357Z,79.06
2018-11-27T12:31:50.160Z,79.03
2018-11-27T12:32:56.916Z,79.04
2018-11-27T12:34:03.677Z,79.02
2018-11-27T12:35:10.500Z,79.02
2018-11-27T12:36:17.441Z,79.01
2018-11-27T12:37:24.287Z,78.98
2018-11-27T12:38:31.199Z,78.99
2018-11-27T12:39:37.978Z,79.01
2018-11-27T12:40:44.760Z,79.01
2018-11-27T12:41:51.625Z,79.01
2018-11-27T12:42:58.417Z,78.98
2018-11-27T12:44:05.211Z,78.96
2018-11-27T12:45:12.119Z,78.93
2018-11-27T12:46:18.772Z,78.93
2018-11-27T12:47:25.547Z,78.92
2018-11-27T12:48:32.425Z,78.94
2018-11-27T12:49:39.208Z,78.90
2018-11-27T12:50:46.009Z,78.88
2018-11-27T12:51:52.977Z,78.91
2018-11-27T12:53:00.773Z,78.93
2018-11-27T12:54:06.581Z,78.93
2018-11-27T12:55:13.348Z,78.90
2018-11-27T12:56:20.369Z,78.90
2018-11-27T12:57:27.212Z,78.91
2018-11-27T12:58:33.954Z,78.90
2018-11-27T12:59:40.753Z,78.88
2018-11-27T13:00:47.547Z,78.85
2018-11-27T13:01:54.347Z,78.82
2018-11-27T13:03:01.176Z,78.82
2018-11-27T13:04:08.112Z,78.77
2018-11-27T13:05:15.995Z,78.74
2018-11-27T13:06:22.079Z,78.73
2018-11-27T13:07:28.883Z,78.71
2018-11-27T13:08:39.161Z,78.70
2018-11-27T13:09:42.461Z,78.75
2018-11-27T13:10:49.244Z,78.72
2018-11-27T13:11:56.049Z,78.71
2018-11-27T13:13:02.898Z,78.62
2018-11-27T13:14:09.779Z,78.58
2018-11-27T13:15:16.552Z,78.55
2018-11-27T13:16:23.300Z,78.54
2018-11-27T13:17:30.048Z,78.59
2018-11-27T13:18:36.828Z,78.66
2018-11-27T13:19:43.696Z,78.68
2018-11-27T13:20:50.564Z,78.66
2018-11-27T13:21:57.344Z,78.66
2018-11-27T13:23:04.112Z,78.66
2018-11-27T13:24:11.285Z,78.66
2018-11-27T13:25:19.233Z,78.66
2018-11-27T13:26:25.169Z,78.62
2018-11-27T13:27:31.961Z,78.58
2018-11-27T13:28:38.751Z,78.56
2018-11-27T13:29:45.498Z,78.51
2018-11-27T13:30:52.304Z,78.52
2018-11-27T13:31:59.159Z,78.47
2018-11-27T13:33:05.940Z,78.41
2018-11-27T13:34:12.930Z,78.38
2018-11-27T13:35:19.809Z,78.37
2018-11-27T13:36:26.701Z,78.33
2018-11-27T13:37:33.468Z,78.29
2018-11-27T13:38:40.386Z,78.27
2018-11-27T13:39:47.104Z,78.23
2018-11-27T13:40:53.892Z,78.20
2018-11-27T13:42:00.748Z,78.12
2018-11-27T13:43:07.764Z,78.08
2018-11-27T13:44:14.852Z,78.07
2018-11-27T13:45:21.625Z,78.07
2018-11-27T13:46:28.414Z,78.05
2018-11-27T13:47:35.165Z,78.06
2018-11-27T13:48:41.958Z,78.05
2018-11-27T13:49:48.828Z,78.08
2018-11-27T13:50:56.990Z,78.05
2018-11-27T13:52:02.774Z,78.06
2018-11-27T13:53:09.906Z,78.05
2018-11-27T13:54:16.686Z,78.07
2018-11-27T13:55:23.479Z,78.05
2018-11-27T13:56:30.289Z,78.05
2018-11-27T13:57:37.045Z,78.04
2018-11-27T13:58:43.826Z,78.03
2018-11-27T13:59:50.608Z,78.04
2018-11-27T14:00:57.383Z,78.02
2018-11-27T14:02:04.243Z,78.00
2018-11-27T14:03:11.059Z,77.99
2018-11-27T14:04:17.888Z,77.95
2018-11-27T14:05:24.652Z,77.93
2018-11-27T14:06:31.472Z,77.91
2018-11-27T14:07:38.240Z,77.92
2018-11-27T14:08:45.055Z,77.92
2018-11-27T14:09:51.870Z,77.92
2018-11-27T14:10:58.660Z,77.95
2018-11-27T14:12:05.470Z,77.95
2018-11-27T14:13:12.316Z,77.95
2018-11-27T14:14:19.080Z,77.95
2018-11-27T14:15:25.871Z,77.92
2018-11-27T14:16:32.699Z,77.89
2018-11-27T14:17:39.559Z,77.86
2018-11-27T14:18:46.345Z,77.77
2018-11-27T14:19:53.121Z,77.68
2018-11-27T14:20:59.904Z,77.66